sensor_id;sensor_type;location;lat;lon;timestamp;pressure;altitude;pressure_sealevel;temperature;humidity
76627;BME280;65519;53.230;10.390;2023-05-25T00:00:08;102122.41;;;10.64;83.09
76627;BME280;65519;53.230;10.390;2023-05-25T00:02:35;102126.09;;;10.70;81.95
76627;BME280;65519;53.230;10.390;2023-05-25T00:05:01;102119.00;;;10.80;81.96
76627;BME280;65519;53.230;10.390;2023-05-25T00:07:27;102107.81;;;10.58;82.55
76627;BME280;65519;53.230;10.390;2023-05-25T00:09:52;102115.03;;;10.53;82.43
76627;BME280;65519;53.230;10.390;2023-05-25T00:12:18;102109.59;;;10.65;82.93
76627;BME280;65519;53.230;10.390;2023-05-25T00:14:44;102113.50;;;10.57;82.23
76627;BME280;65519;53.230;10.390;2023-05-25T00:17:09;102110.63;;;10.52;82.73
76627;BME280;65519;53.230;10.390;2023-05-25T00:19:37;102117.09;;;10.69;82.76
76627;BME280;65519;53.230;10.390;2023-05-25T00:22:07;102109.13;;;10.56;82.28
76627;BME280;65519;53.230;10.390;2023-05-25T00:24:33;102115.19;;;10.70;82.28
76627;BME280;65519;53.230;10.390;2023-05-25T00:26:58;102108.16;;;10.62;82.04
76627;BME280;65519;53.230;10.390;2023-05-25T00:29:24;102111.94;;;10.61;82.71
76627;BME280;65519;53.230;10.390;2023-05-25T00:31:51;102118.34;;;10.55;82.91
76627;BME280;65519;53.230;10.390;2023-05-25T00:34:17;102112.06;;;10.54;82.94
76627;BME280;65519;53.230;10.390;2023-05-25T00:36:43;102112.91;;;10.55;82.21
76627;BME280;65519;53.230;10.390;2023-05-25T00:39:08;102112.50;;;10.40;83.36
76627;BME280;65519;53.230;10.390;2023-05-25T00:41:35;102106.69;;;10.36;83.15
76627;BME280;65519;53.230;10.390;2023-05-25T00:44:06;102121.25;;;10.30;83.27
76627;BME280;65519;53.230;10.390;2023-05-25T00:46:33;102116.28;;;10.27;83.84
76627;BME280;65519;53.230;10.390;2023-05-25T00:48:59;102116.53;;;10.37;84.21
76627;BME280;65519;53.230;10.390;2023-05-25T00:51:25;102117.94;;;10.40;84.44
76627;BME280;65519;53.230;10.390;2023-05-25T00:53:51;102109.50;;;10.30;83.31
76627;BME280;65519;53.230;10.390;2023-05-25T00:56:22;102112.47;;;10.28;83.11
76627;BME280;65519;53.230;10.390;2023-05-25T00:58:50;102111.81;;;10.44;82.66
76627;BME280;65519;53.230;10.390;2023-05-25T01:01:19;102112.38;;;10.35;82.79
76627;BME280;65519;53.230;10.390;2023-05-25T01:03:47;102107.00;;;10.28;82.89
76627;BME280;65519;53.230;10.390;2023-05-25T01:06:19;102112.00;;;10.31;83.19
76627;BME280;65519;53.230;10.390;2023-05-25T01:08:48;102115.28;;;10.21;83.95
76627;BME280;65519;53.230;10.390;2023-05-25T01:11:20;102114.25;;;10.22;84.48
76627;BME280;65519;53.230;10.390;2023-05-25T01:13:51;102112.13;;;10.24;83.27
76627;BME280;65519;53.230;10.390;2023-05-25T01:16:18;102120.97;;;10.20;83.30
76627;BME280;65519;53.230;10.390;2023-05-25T01:18:45;102120.91;;;10.08;84.10
76627;BME280;65519;53.230;10.390;2023-05-25T01:21:25;102130.56;;;9.93;85.08
76627;BME280;65519;53.230;10.390;2023-05-25T01:24:02;102128.50;;;9.88;84.21
76627;BME280;65519;53.230;10.390;2023-05-25T01:26:33;102116.72;;;9.94;84.40
76627;BME280;65519;53.230;10.390;2023-05-25T01:29:01;102118.53;;;9.82;85.79
76627;BME280;65519;53.230;10.390;2023-05-25T01:31:27;102119.28;;;9.89;85.07
76627;BME280;65519;53.230;10.390;2023-05-25T01:33:54;102116.84;;;9.99;84.84
76627;BME280;65519;53.230;10.390;2023-05-25T01:36:20;102117.56;;;10.06;84.38
76627;BME280;65519;53.230;10.390;2023-05-25T01:38:46;102123.75;;;9.83;84.91
76627;BME280;65519;53.230;10.390;2023-05-25T01:41:12;102124.06;;;9.75;85.19
76627;BME280;65519;53.230;10.390;2023-05-25T01:43:38;102109.22;;;9.89;84.86
76627;BME280;65519;53.230;10.390;2023-05-25T01:49:25;102110.03;;;9.90;84.64
76627;BME280;65519;53.230;10.390;2023-05-25T01:51:59;102118.44;;;9.88;85.08
76627;BME280;65519;53.230;10.390;2023-05-25T01:54:35;102121.28;;;9.82;84.66
76627;BME280;65519;53.230;10.390;2023-05-25T01:57:06;102108.53;;;9.76;84.38
76627;BME280;65519;53.230;10.390;2023-05-25T01:59:33;102114.88;;;9.88;84.57
76627;BME280;65519;53.230;10.390;2023-05-25T02:02:04;102121.03;;;9.83;85.03
76627;BME280;65519;53.230;10.390;2023-05-25T02:04:30;102118.38;;;9.77;85.16
76627;BME280;65519;53.230;10.390;2023-05-25T02:06:55;102118.53;;;9.82;85.87
76627;BME280;65519;53.230;10.390;2023-05-25T02:09:21;102117.94;;;9.80;84.85
76627;BME280;65519;53.230;10.390;2023-05-25T02:11:47;102123.44;;;9.92;84.85
76627;BME280;65519;53.230;10.390;2023-05-25T02:14:13;102119.00;;;9.79;85.38
76627;BME280;65519;53.230;10.390;2023-05-25T02:16:39;102115.81;;;9.82;86.04
76627;BME280;65519;53.230;10.390;2023-05-25T02:19:04;102116.31;;;9.91;85.05
76627;BME280;65519;53.230;10.390;2023-05-25T02:21:30;102114.81;;;9.95;85.73
76627;BME280;65519;53.230;10.390;2023-05-25T02:23:56;102116.22;;;9.97;84.85
76627;BME280;65519;53.230;10.390;2023-05-25T02:26:23;102115.94;;;9.87;85.54
76627;BME280;65519;53.230;10.390;2023-05-25T02:28:50;102112.53;;;9.92;85.80
76627;BME280;65519;53.230;10.390;2023-05-25T02:31:16;102111.44;;;9.81;86.52
76627;BME280;65519;53.230;10.390;2023-05-25T02:33:42;102112.16;;;9.88;86.22
76627;BME280;65519;53.230;10.390;2023-05-25T02:36:08;102116.44;;;9.84;85.64
76627;BME280;65519;53.230;10.390;2023-05-25T02:38:33;102119.06;;;9.91;85.93
76627;BME280;65519;53.230;10.390;2023-05-25T02:40:59;102112.44;;;9.98;85.45
76627;BME280;65519;53.230;10.390;2023-05-25T02:43:24;102123.06;;;9.88;85.99
76627;BME280;65519;53.230;10.390;2023-05-25T02:45:50;102122.94;;;9.83;86.42
76627;BME280;65519;53.230;10.390;2023-05-25T02:48:16;102113.69;;;9.84;86.67
76627;BME280;65519;53.230;10.390;2023-05-25T02:50:42;102118.16;;;9.78;86.48
76627;BME280;65519;53.230;10.390;2023-05-25T02:53:11;102117.84;;;9.86;86.65
76627;BME280;65519;53.230;10.390;2023-05-25T02:55:37;102115.41;;;9.97;85.97
76627;BME280;65519;53.230;10.390;2023-05-25T02:58:06;102124.63;;;9.96;85.38
76627;BME280;65519;53.230;10.390;2023-05-25T03:00:51;102123.06;;;9.88;86.63
76627;BME280;65519;53.230;10.390;2023-05-25T03:03:18;102123.00;;;9.95;87.15
76627;BME280;65519;53.230;10.390;2023-05-25T03:05:44;102131.84;;;9.90;86.51
76627;BME280;65519;53.230;10.390;2023-05-25T03:08:10;102130.34;;;9.94;86.72
76627;BME280;65519;53.230;10.390;2023-05-25T03:10:35;102122.72;;;9.96;87.25
76627;BME280;65519;53.230;10.390;2023-05-25T03:13:01;102127.88;;;10.04;86.03
76627;BME280;65519;53.230;10.390;2023-05-25T03:15:26;102131.19;;;10.06;85.88
76627;BME280;65519;53.230;10.390;2023-05-25T03:17:52;102127.41;;;10.07;85.70
76627;BME280;65519;53.230;10.390;2023-05-25T03:20:21;102121.59;;;10.04;86.14
76627;BME280;65519;53.230;10.390;2023-05-25T03:22:50;102124.94;;;10.06;86.31
76627;BME280;65519;53.230;10.390;2023-05-25T03:25:18;102125.44;;;10.14;85.80
76627;BME280;65519;53.230;10.390;2023-05-25T03:27:43;102130.72;;;10.09;86.45
76627;BME280;65519;53.230;10.390;2023-05-25T03:30:09;102136.34;;;9.96;86.90
76627;BME280;65519;53.230;10.390;2023-05-25T03:32:35;102133.94;;;9.88;86.93
76627;BME280;65519;53.230;10.390;2023-05-25T03:35:01;102133.41;;;9.98;87.23
76627;BME280;65519;53.230;10.390;2023-05-25T03:37:26;102137.28;;;9.90;87.57
76627;BME280;65519;53.230;10.390;2023-05-25T03:39:52;102132.91;;;9.89;87.50
76627;BME280;65519;53.230;10.390;2023-05-25T03:42:17;102138.34;;;9.89;87.36
76627;BME280;65519;53.230;10.390;2023-05-25T03:44:43;102144.53;;;9.96;87.31
76627;BME280;65519;53.230;10.390;2023-05-25T03:47:09;102140.00;;;9.90;87.17
76627;BME280;65519;53.230;10.390;2023-05-25T03:49:35;102135.16;;;9.92;87.01
76627;BME280;65519;53.230;10.390;2023-05-25T03:52:01;102136.34;;;9.96;87.07
76627;BME280;65519;53.230;10.390;2023-05-25T03:54:26;102140.97;;;9.96;86.47
76627;BME280;65519;53.230;10.390;2023-05-25T03:56:52;102142.28;;;9.93;87.25
76627;BME280;65519;53.230;10.390;2023-05-25T03:59:17;102143.03;;;10.00;87.52
76627;BME280;65519;53.230;10.390;2023-05-25T04:01:43;102136.75;;;10.00;87.44
76627;BME280;65519;53.230;10.390;2023-05-25T04:04:09;102137.47;;;10.07;86.55
76627;BME280;65519;53.230;10.390;2023-05-25T04:06:35;102139.56;;;9.93;86.55
76627;BME280;65519;53.230;10.390;2023-05-25T04:09:05;102152.25;;;9.99;86.94
76627;BME280;65519;53.230;10.390;2023-05-25T04:11:32;102154.81;;;10.12;86.43
76627;BME280;65519;53.230;10.390;2023-05-25T04:13:57;102149.88;;;10.21;86.22
76627;BME280;65519;53.230;10.390;2023-05-25T04:16:27;102159.63;;;10.29;85.99
76627;BME280;65519;53.230;10.390;2023-05-25T04:18:54;102162.00;;;10.07;86.26
76627;BME280;65519;53.230;10.390;2023-05-25T04:21:20;102159.97;;;10.20;86.50
76627;BME280;65519;53.230;10.390;2023-05-25T04:23:46;102169.69;;;10.28;85.82
76627;BME280;65519;53.230;10.390;2023-05-25T04:26:12;102167.97;;;10.34;85.99
76627;BME280;65519;53.230;10.390;2023-05-25T04:28:41;102169.75;;;10.40;85.70
76627;BME280;65519;53.230;10.390;2023-05-25T04:31:20;102166.72;;;10.48;85.52
76627;BME280;65519;53.230;10.390;2023-05-25T04:34:05;102168.25;;;10.55;85.09
76627;BME280;65519;53.230;10.390;2023-05-25T04:36:39;102172.25;;;10.41;85.16
76627;BME280;65519;53.230;10.390;2023-05-25T04:39:08;102175.19;;;10.40;85.47
76627;BME280;65519;53.230;10.390;2023-05-25T04:41:38;102173.69;;;10.44;85.79
76627;BME280;65519;53.230;10.390;2023-05-25T04:44:07;102179.59;;;10.41;85.64
76627;BME280;65519;53.230;10.390;2023-05-25T04:46:35;102175.69;;;10.37;84.99
76627;BME280;65519;53.230;10.390;2023-05-25T04:49:02;102180.25;;;10.54;84.92
76627;BME280;65519;53.230;10.390;2023-05-25T04:51:30;102187.75;;;10.41;84.94
76627;BME280;65519;53.230;10.390;2023-05-25T04:53:57;102187.50;;;10.31;84.76
76627;BME280;65519;53.230;10.390;2023-05-25T04:56:23;102195.88;;;10.47;85.12
76627;BME280;65519;53.230;10.390;2023-05-25T04:58:50;102189.81;;;10.45;84.93
76627;BME280;65519;53.230;10.390;2023-05-25T05:01:17;102194.16;;;10.35;84.61
76627;BME280;65519;53.230;10.390;2023-05-25T05:03:44;102198.59;;;10.47;84.31
76627;BME280;65519;53.230;10.390;2023-05-25T05:06:10;102192.75;;;10.44;84.25
76627;BME280;65519;53.230;10.390;2023-05-25T05:08:37;102196.44;;;10.49;84.66
76627;BME280;65519;53.230;10.390;2023-05-25T05:11:02;102198.38;;;10.49;84.23
76627;BME280;65519;53.230;10.390;2023-05-25T05:13:28;102200.53;;;10.58;84.53
76627;BME280;65519;53.230;10.390;2023-05-25T05:15:54;102210.69;;;10.51;84.15
76627;BME280;65519;53.230;10.390;2023-05-25T05:18:21;102210.13;;;10.61;83.44
76627;BME280;65519;53.230;10.390;2023-05-25T05:20:46;102215.34;;;10.63;83.57
76627;BME280;65519;53.230;10.390;2023-05-25T05:23:12;102208.09;;;10.56;83.49
76627;BME280;65519;53.230;10.390;2023-05-25T05:25:38;102209.72;;;10.46;83.81
76627;BME280;65519;53.230;10.390;2023-05-25T05:28:04;102211.56;;;10.34;84.80
76627;BME280;65519;53.230;10.390;2023-05-25T05:30:35;102207.69;;;10.41;84.04
76627;BME280;65519;53.230;10.390;2023-05-25T05:33:00;102225.03;;;10.47;84.31
76627;BME280;65519;53.230;10.390;2023-05-25T05:35:30;102220.75;;;10.51;83.90
76627;BME280;65519;53.230;10.390;2023-05-25T05:38:04;102212.81;;;10.49;83.65
76627;BME280;65519;53.230;10.390;2023-05-25T05:40:30;102212.34;;;10.52;83.95
76627;BME280;65519;53.230;10.390;2023-05-25T05:42:55;102215.06;;;10.52;83.54
76627;BME280;65519;53.230;10.390;2023-05-25T05:45:21;102215.56;;;10.61;83.50
76627;BME280;65519;53.230;10.390;2023-05-25T05:47:47;102219.13;;;10.61;83.29
76627;BME280;65519;53.230;10.390;2023-05-25T05:50:12;102209.22;;;10.67;83.61
76627;BME280;65519;53.230;10.390;2023-05-25T05:52:39;102224.16;;;10.76;83.40
76627;BME280;65519;53.230;10.390;2023-05-25T05:55:05;102228.69;;;10.82;83.37
76627;BME280;65519;53.230;10.390;2023-05-25T05:57:32;102221.81;;;10.80;82.78
76627;BME280;65519;53.230;10.390;2023-05-25T05:59:57;102227.78;;;10.88;83.49
76627;BME280;65519;53.230;10.390;2023-05-25T06:02:23;102233.31;;;10.70;83.45
76627;BME280;65519;53.230;10.390;2023-05-25T06:04:48;102236.84;;;10.71;83.67
76627;BME280;65519;53.230;10.390;2023-05-25T06:07:14;102238.66;;;10.77;83.24
76627;BME280;65519;53.230;10.390;2023-05-25T06:09:39;102240.81;;;10.86;83.10
76627;BME280;65519;53.230;10.390;2023-05-25T06:12:06;102241.88;;;10.85;82.51
76627;BME280;65519;53.230;10.390;2023-05-25T06:14:32;102244.69;;;10.79;82.38
76627;BME280;65519;53.230;10.390;2023-05-25T06:17:01;102252.16;;;10.83;82.58
76627;BME280;65519;53.230;10.390;2023-05-25T06:19:26;102243.53;;;10.86;82.52
76627;BME280;65519;53.230;10.390;2023-05-25T06:21:52;102251.00;;;10.79;81.98
76627;BME280;65519;53.230;10.390;2023-05-25T06:24:19;102254.00;;;10.89;82.67
76627;BME280;65519;53.230;10.390;2023-05-25T06:26:45;102246.72;;;10.83;82.01
76627;BME280;65519;53.230;10.390;2023-05-25T06:29:11;102253.75;;;10.91;81.36
76627;BME280;65519;53.230;10.390;2023-05-25T06:31:37;102257.53;;;10.90;80.94
76627;BME280;65519;53.230;10.390;2023-05-25T06:34:03;102252.94;;;10.90;80.21
76627;BME280;65519;53.230;10.390;2023-05-25T06:36:28;102260.78;;;11.10;80.23
76627;BME280;65519;53.230;10.390;2023-05-25T06:38:54;102266.63;;;11.14;80.10
76627;BME280;65519;53.230;10.390;2023-05-25T06:41:20;102274.25;;;10.93;79.51
76627;BME280;65519;53.230;10.390;2023-05-25T06:43:45;102272.88;;;11.03;79.23
76627;BME280;65519;53.230;10.390;2023-05-25T06:46:14;102267.91;;;11.11;79.26
76627;BME280;65519;53.230;10.390;2023-05-25T06:48:43;102274.81;;;11.14;78.80
76627;BME280;65519;53.230;10.390;2023-05-25T06:51:09;102278.94;;;11.16;79.04
76627;BME280;65519;53.230;10.390;2023-05-25T06:53:36;102276.81;;;11.18;80.35
76627;BME280;65519;53.230;10.390;2023-05-25T06:56:01;102284.63;;;11.03;79.56
76627;BME280;65519;53.230;10.390;2023-05-25T06:58:27;102280.84;;;11.16;79.06
76627;BME280;65519;53.230;10.390;2023-05-25T07:00:52;102281.25;;;11.31;78.86
76627;BME280;65519;53.230;10.390;2023-05-25T07:03:17;102278.38;;;11.26;78.45
76627;BME280;65519;53.230;10.390;2023-05-25T07:05:43;102280.16;;;11.20;78.89
76627;BME280;65519;53.230;10.390;2023-05-25T07:08:08;102275.31;;;11.34;79.98
76627;BME280;65519;53.230;10.390;2023-05-25T07:10:34;102284.81;;;11.43;78.14
76627;BME280;65519;53.230;10.390;2023-05-25T07:12:59;102280.78;;;11.46;78.46
76627;BME280;65519;53.230;10.390;2023-05-25T07:15:25;102285.66;;;11.55;77.93
76627;BME280;65519;53.230;10.390;2023-05-25T07:17:50;102285.88;;;11.42;77.91
76627;BME280;65519;53.230;10.390;2023-05-25T07:20:16;102288.22;;;11.27;77.17
76627;BME280;65519;53.230;10.390;2023-05-25T07:22:41;102284.19;;;11.29;76.71
76627;BME280;65519;53.230;10.390;2023-05-25T07:25:08;102291.06;;;11.20;77.28
76627;BME280;65519;53.230;10.390;2023-05-25T07:27:33;102289.53;;;11.36;76.90
76627;BME280;65519;53.230;10.390;2023-05-25T07:30:00;102282.81;;;11.62;78.15
76627;BME280;65519;53.230;10.390;2023-05-25T07:32:25;102288.03;;;11.52;75.51
76627;BME280;65519;53.230;10.390;2023-05-25T07:34:51;102293.63;;;11.57;75.23
76627;BME280;65519;53.230;10.390;2023-05-25T07:37:16;102298.84;;;11.70;76.04
76627;BME280;65519;53.230;10.390;2023-05-25T07:39:41;102294.25;;;11.82;75.28
76627;BME280;65519;53.230;10.390;2023-05-25T07:42:07;102282.38;;;11.88;74.64
76627;BME280;65519;53.230;10.390;2023-05-25T07:44:33;102290.44;;;11.83;73.20
76627;BME280;65519;53.230;10.390;2023-05-25T07:46:58;102291.72;;;12.04;73.87
76627;BME280;65519;53.230;10.390;2023-05-25T07:49:24;102300.97;;;12.26;73.94
76627;BME280;65519;53.230;10.390;2023-05-25T07:51:49;102293.28;;;12.52;74.26
76627;BME280;65519;53.230;10.390;2023-05-25T07:54:15;102289.78;;;12.28;71.21
76627;BME280;65519;53.230;10.390;2023-05-25T07:56:41;102297.84;;;12.34;71.79
76627;BME280;65519;53.230;10.390;2023-05-25T07:59:06;102292.59;;;12.44;70.43
76627;BME280;65519;53.230;10.390;2023-05-25T08:01:32;102288.16;;;12.55;70.86
76627;BME280;65519;53.230;10.390;2023-05-25T08:03:57;102292.66;;;12.61;69.76
76627;BME280;65519;53.230;10.390;2023-05-25T08:06:23;102303.88;;;12.76;68.71
76627;BME280;65519;53.230;10.390;2023-05-25T08:08:48;102296.13;;;12.85;69.30
76627;BME280;65519;53.230;10.390;2023-05-25T08:11:15;102287.22;;;12.50;70.28
76627;BME280;65519;53.230;10.390;2023-05-25T08:13:41;102295.03;;;12.58;70.05
76627;BME280;65519;53.230;10.390;2023-05-25T08:16:07;102288.50;;;12.59;68.36
76627;BME280;65519;53.230;10.390;2023-05-25T08:18:33;102295.56;;;13.00;68.63
76627;BME280;65519;53.230;10.390;2023-05-25T08:20:58;102295.69;;;13.05;67.83
76627;BME280;65519;53.230;10.390;2023-05-25T08:23:24;102293.66;;;13.29;67.79
76627;BME280;65519;53.230;10.390;2023-05-25T08:25:49;102289.75;;;13.25;67.68
76627;BME280;65519;53.230;10.390;2023-05-25T08:28:15;102299.81;;;13.19;68.34
76627;BME280;65519;53.230;10.390;2023-05-25T08:30:41;102305.13;;;12.97;67.97
76627;BME280;65519;53.230;10.390;2023-05-25T08:33:09;102294.19;;;12.97;67.96
76627;BME280;65519;53.230;10.390;2023-05-25T08:35:34;102299.47;;;13.15;68.21
76627;BME280;65519;53.230;10.390;2023-05-25T08:38:03;102299.47;;;13.15;67.38
76627;BME280;65519;53.230;10.390;2023-05-25T08:40:29;102292.31;;;13.31;67.46
76627;BME280;65519;53.230;10.390;2023-05-25T08:42:54;102300.22;;;13.61;68.28
76627;BME280;65519;53.230;10.390;2023-05-25T08:45:20;102302.53;;;13.69;67.68
76627;BME280;65519;53.230;10.390;2023-05-25T08:47:47;102301.63;;;13.47;66.63
76627;BME280;65519;53.230;10.390;2023-05-25T08:50:15;102302.47;;;13.47;67.06
76627;BME280;65519;53.230;10.390;2023-05-25T08:52:44;102307.72;;;13.87;66.76
76627;BME280;65519;53.230;10.390;2023-05-25T08:55:11;102304.66;;;14.22;67.64
76627;BME280;65519;53.230;10.390;2023-05-25T08:58:05;102309.25;;;14.17;64.22
76627;BME280;65519;53.230;10.390;2023-05-25T09:00:34;102309.38;;;14.44;65.31
76627;BME280;65519;53.230;10.390;2023-05-25T09:03:14;102311.13;;;14.33;62.34
76627;BME280;65519;53.230;10.390;2023-05-25T09:05:40;102309.81;;;14.19;64.01
76627;BME280;65519;53.230;10.390;2023-05-25T09:08:06;102313.50;;;14.08;64.65
76627;BME280;65519;53.230;10.390;2023-05-25T09:10:37;102317.31;;;14.07;63.05
76627;BME280;65519;53.230;10.390;2023-05-25T09:13:03;102314.66;;;14.12;63.69
76627;BME280;65519;53.230;10.390;2023-05-25T09:15:32;102311.91;;;14.50;61.97
76627;BME280;65519;53.230;10.390;2023-05-25T09:17:58;102308.63;;;14.75;61.33
76627;BME280;65519;53.230;10.390;2023-05-25T09:20:24;102303.09;;;14.97;62.48
76627;BME280;65519;53.230;10.390;2023-05-25T09:22:56;102297.78;;;15.12;62.32
76627;BME280;65519;53.230;10.390;2023-05-25T09:25:22;102299.22;;;15.20;61.90
76627;BME280;65519;53.230;10.390;2023-05-25T09:27:50;102309.25;;;14.82;60.64
76627;BME280;65519;53.230;10.390;2023-05-25T09:30:16;102305.00;;;14.96;60.69
76627;BME280;65519;53.230;10.390;2023-05-25T09:32:41;102305.63;;;15.04;61.17
76627;BME280;65519;53.230;10.390;2023-05-25T09:37:37;102313.72;;;15.15;58.93
76627;BME280;65519;53.230;10.390;2023-05-25T09:40:04;102313.91;;;15.36;59.07
76627;BME280;65519;53.230;10.390;2023-05-25T09:42:31;102308.84;;;15.91;60.94
76627;BME280;65519;53.230;10.390;2023-05-25T09:45:00;102311.19;;;16.15;60.48
76627;BME280;65519;53.230;10.390;2023-05-25T09:47:26;102300.97;;;16.05;57.08
76627;BME280;65519;53.230;10.390;2023-05-25T09:49:52;102309.41;;;15.93;56.12
76627;BME280;65519;53.230;10.390;2023-05-25T09:52:18;102306.16;;;16.01;54.93
76627;BME280;65519;53.230;10.390;2023-05-25T09:54:48;102309.41;;;15.93;55.07
76627;BME280;65519;53.230;10.390;2023-05-25T09:57:14;102305.84;;;15.93;55.41
76627;BME280;65519;53.230;10.390;2023-05-25T09:59:41;102306.19;;;16.06;55.02
76627;BME280;65519;53.230;10.390;2023-05-25T10:02:07;102310.16;;;16.26;55.35
76627;BME280;65519;53.230;10.390;2023-05-25T10:04:33;102304.13;;;16.34;54.32
76627;BME280;65519;53.230;10.390;2023-05-25T10:06:59;102317.41;;;16.42;54.57
76627;BME280;65519;53.230;10.390;2023-05-25T10:09:28;102323.56;;;16.69;56.23
76627;BME280;65519;53.230;10.390;2023-05-25T10:11:55;102325.28;;;16.86;56.19
76627;BME280;65519;53.230;10.390;2023-05-25T10:14:25;102317.06;;;16.96;54.03
76627;BME280;65519;53.230;10.390;2023-05-25T10:16:53;102324.22;;;17.12;53.25
76627;BME280;65519;53.230;10.390;2023-05-25T10:19:43;102329.78;;;17.27;52.27
76627;BME280;65519;53.230;10.390;2023-05-25T10:22:20;102330.31;;;17.55;55.50
76627;BME280;65519;53.230;10.390;2023-05-25T10:25:07;102327.88;;;17.63;53.25
76627;BME280;65519;53.230;10.390;2023-05-25T10:27:43;102330.34;;;17.60;52.40
76627;BME280;65519;53.230;10.390;2023-05-25T10:30:13;102333.63;;;17.57;51.66
76627;BME280;65519;53.230;10.390;2023-05-25T10:32:39;102330.88;;;17.41;50.02
76627;BME280;65519;53.230;10.390;2023-05-25T10:35:05;102329.50;;;17.44;49.75
76627;BME280;65519;53.230;10.390;2023-05-25T10:37:32;102335.84;;;17.75;50.51
76627;BME280;65519;53.230;10.390;2023-05-25T10:39:58;102330.63;;;17.78;51.56
76627;BME280;65519;53.230;10.390;2023-05-25T10:42:25;102330.91;;;17.72;51.57
76627;BME280;65519;53.230;10.390;2023-05-25T10:44:51;102328.97;;;17.67;50.59
76627;BME280;65519;53.230;10.390;2023-05-25T10:47:18;102328.97;;;17.72;48.02
76627;BME280;65519;53.230;10.390;2023-05-25T10:49:53;102328.69;;;17.59;47.05
76627;BME280;65519;53.230;10.390;2023-05-25T10:52:19;102327.31;;;17.66;48.62
76627;BME280;65519;53.230;10.390;2023-05-25T10:54:46;102323.72;;;17.91;47.85
76627;BME280;65519;53.230;10.390;2023-05-25T10:57:17;102322.00;;;18.10;48.50
76627;BME280;65519;53.230;10.390;2023-05-25T10:59:50;102323.63;;;18.21;48.52
76627;BME280;65519;53.230;10.390;2023-05-25T11:02:18;102319.22;;;18.20;49.54
76627;BME280;65519;53.230;10.390;2023-05-25T11:04:48;102318.13;;;18.21;47.81
76627;BME280;65519;53.230;10.390;2023-05-25T11:07:14;102316.19;;;18.22;46.27
76627;BME280;65519;53.230;10.390;2023-05-25T11:09:42;102321.84;;;18.51;47.30
76627;BME280;65519;53.230;10.390;2023-05-25T11:12:17;102309.44;;;18.53;46.18
76627;BME280;65519;53.230;10.390;2023-05-25T11:15:08;102318.22;;;18.71;47.36
76627;BME280;65519;53.230;10.390;2023-05-25T11:17:43;102310.50;;;18.68;44.03
76627;BME280;65519;53.230;10.390;2023-05-25T11:20:20;102311.28;;;18.78;46.20
76627;BME280;65519;53.230;10.390;2023-05-25T11:22:49;102320.06;;;18.90;47.50
76627;BME280;65519;53.230;10.390;2023-05-25T11:25:35;102315.50;;;18.55;41.42
76627;BME280;65519;53.230;10.390;2023-05-25T11:28:08;102314.34;;;18.72;44.46
76627;BME280;65519;53.230;10.390;2023-05-25T11:30:37;102314.53;;;18.90;45.22
76627;BME280;65519;53.230;10.390;2023-05-25T11:33:03;102322.47;;;19.02;46.26
76627;BME280;65519;53.230;10.390;2023-05-25T11:35:30;102310.59;;;19.02;45.39
76627;BME280;65519;53.230;10.390;2023-05-25T11:38:06;102307.63;;;19.27;45.65
76627;BME280;65519;53.230;10.390;2023-05-25T11:40:32;102301.88;;;19.23;45.96
76627;BME280;65519;53.230;10.390;2023-05-25T11:42:58;102308.72;;;18.92;42.43
76627;BME280;65519;53.230;10.390;2023-05-25T11:45:27;102313.38;;;18.96;42.60
76627;BME280;65519;53.230;10.390;2023-05-25T11:47:53;102308.44;;;19.27;43.14
76627;BME280;65519;53.230;10.390;2023-05-25T11:50:18;102311.09;;;19.43;43.26
76627;BME280;65519;53.230;10.390;2023-05-25T11:52:44;102303.63;;;19.43;42.50
76627;BME280;65519;53.230;10.390;2023-05-25T11:55:11;102308.53;;;19.17;42.41
76627;BME280;65519;53.230;10.390;2023-05-25T11:57:38;102306.97;;;19.40;43.82
76627;BME280;65519;53.230;10.390;2023-05-25T12:00:05;102299.63;;;19.59;42.56
76627;BME280;65519;53.230;10.390;2023-05-25T12:02:38;102305.56;;;19.77;42.99
76627;BME280;65519;53.230;10.390;2023-05-25T12:05:04;102294.81;;;19.70;39.11
76627;BME280;65519;53.230;10.390;2023-05-25T12:07:31;102295.69;;;19.94;40.62
76627;BME280;65519;53.230;10.390;2023-05-25T12:10:10;102292.06;;;19.99;41.60
76627;BME280;65519;53.230;10.390;2023-05-25T12:12:49;102294.19;;;20.07;41.80
76627;BME280;65519;53.230;10.390;2023-05-25T12:15:24;102292.47;;;20.11;41.25
76627;BME280;65519;53.230;10.390;2023-05-25T12:17:51;102284.47;;;19.81;40.03
76627;BME280;65519;53.230;10.390;2023-05-25T12:20:18;102284.03;;;19.68;40.53
76627;BME280;65519;53.230;10.390;2023-05-25T12:22:45;102282.44;;;19.67;39.18
76627;BME280;65519;53.230;10.390;2023-05-25T12:25:12;102286.19;;;19.77;39.36
76627;BME280;65519;53.230;10.390;2023-05-25T12:27:37;102292.06;;;19.99;40.61
76627;BME280;65519;53.230;10.390;2023-05-25T12:30:07;102286.13;;;20.11;39.85
76627;BME280;65519;53.230;10.390;2023-05-25T12:32:33;102289.28;;;20.47;41.59
76627;BME280;65519;53.230;10.390;2023-05-25T12:35:05;102281.53;;;20.67;40.40
76627;BME280;65519;53.230;10.390;2023-05-25T12:37:31;102285.34;;;20.90;39.67
76627;BME280;65519;53.230;10.390;2023-05-25T12:39:57;102285.50;;;21.18;38.50
76627;BME280;65519;53.230;10.390;2023-05-25T12:42:22;102291.19;;;21.26;39.25
76627;BME280;65519;53.230;10.390;2023-05-25T12:44:55;102289.25;;;21.27;39.70
76627;BME280;65519;53.230;10.390;2023-05-25T12:47:26;102289.94;;;21.19;42.09
76627;BME280;65519;53.230;10.390;2023-05-25T12:50:11;102282.66;;;21.04;41.38